sensor_id;sensor_type;location;lat;lon;timestamp;P1;durP1;ratioP1;P2;durP2;ratioP2
41101;SDS011;26845;50.190;19.178;2024-03-23T18:50:13;27.80;;;11.30;;
41101;SDS011;26845;50.190;19.178;2024-03-23T18:53:11;11.80;;;7.00;;
41101;SDS011;26845;50.190;19.178;2024-03-23T18:56:10;7.50;;;5.30;;
41101;SDS011;26845;50.190;19.178;2024-03-23T18:58:50;5.60;;;4.50;;
41101;SDS011;26845;50.190;19.178;2024-03-23T19:01:36;9.00;;;5.80;;
41101;SDS011;26845;50.190;19.178;2024-03-23T19:04:09;8.80;;;6.00;;
41101;SDS011;26845;50.190;19.178;2024-03-23T19:06:43;8.60;;;5.90;;
41101;SDS011;26845;50.190;19.178;2024-03-23T19:09:17;9.10;;;5.70;;
41101;SDS011;26845;50.190;19.178;2024-03-23T19:11:50;8.90;;;6.50;;
41101;SDS011;26845;50.190;19.178;2024-03-23T19:14:23;18.80;;;10.00;;
41101;SDS011;26845;50.190;19.178;2024-03-23T19:16:57;16.70;;;8.80;;
41101;SDS011;26845;50.190;19.178;2024-03-23T19:19:31;12.80;;;8.20;;
41101;SDS011;26845;50.190;19.178;2024-03-23T19:22:04;9.60;;;7.50;;
41101;SDS011;26845;50.190;19.178;2024-03-23T19:24:37;8.30;;;6.60;;
41101;SDS011;26845;50.190;19.178;2024-03-23T19:27:11;11.20;;;7.60;;
41101;SDS011;26845;50.190;19.178;2024-03-23T19:29:44;9.70;;;7.30;;
41101;SDS011;26845;50.190;19.178;2024-03-23T19:32:18;8.10;;;6.10;;
41101;SDS011;26845;50.190;19.178;2024-03-23T19:34:51;9.70;;;6.70;;
41101;SDS011;26845;50.190;19.178;2024-03-23T19:37:25;15.70;;;9.40;;
41101;SDS011;26845;50.190;19.178;2024-03-23T19:39:58;19.90;;;11.00;;
41101;SDS011;26845;50.190;19.178;2024-03-23T19:42:31;15.50;;;9.30;;
41101;SDS011;26845;50.190;19.178;2024-03-23T19:45:05;7.80;;;5.50;;
41101;SDS011;26845;50.190;19.178;2024-03-23T19:47:39;9.60;;;6.60;;
41101;SDS011;26845;50.190;19.178;2024-03-23T19:50:12;11.30;;;6.80;;
41101;SDS011;26845;50.190;19.178;2024-03-23T19:52:47;9.00;;;6.10;;
41101;SDS011;26845;50.190;19.178;2024-03-23T19:55:19;7.90;;;4.40;;
41101;SDS011;26845;50.190;19.178;2024-03-23T19:57:53;5.70;;;3.40;;
41101;SDS011;26845;50.190;19.178;2024-03-23T20:00:26;6.30;;;4.00;;
41101;SDS011;26845;50.190;19.178;2024-03-23T20:03:00;16.10;;;4.60;;
41101;SDS011;26845;50.190;19.178;2024-03-23T20:05:33;7.70;;;3.60;;
41101;SDS011;26845;50.190;19.178;2024-03-23T20:08:07;8.70;;;4.60;;
41101;SDS011;26845;50.190;19.178;2024-03-23T20:10:45;7.40;;;3.90;;
41101;SDS011;26845;50.190;19.178;2024-03-23T20:13:14;6.10;;;3.90;;
41101;SDS011;26845;50.190;19.178;2024-03-23T20:15:54;11.30;;;5.60;;
41101;SDS011;26845;50.190;19.178;2024-03-23T20:18:33;10.70;;;5.80;;
41101;SDS011;26845;50.190;19.178;2024-03-23T20:21:13;6.60;;;3.80;;
41101;SDS011;26845;50.190;19.178;2024-03-23T20:23:53;5.90;;;2.90;;
41101;SDS011;26845;50.190;19.178;2024-03-23T21:01:35;5.90;;;3.10;;
41101;SDS011;26845;50.190;19.178;2024-03-23T21:04:15;10.00;;;4.00;;
41101;SDS011;26845;50.190;19.178;2024-03-23T21:06:55;8.60;;;3.50;;
41101;SDS011;26845;50.190;19.178;2024-03-23T21:12:29;8.40;;;3.40;;
41101;SDS011;26845;50.190;19.178;2024-03-23T21:15:09;7.80;;;3.50;;
41101;SDS011;26845;50.190;19.178;2024-03-23T21:17:49;5.60;;;2.90;;
41101;SDS011;26845;50.190;19.178;2024-03-23T21:20:29;8.40;;;3.40;;
41101;SDS011;26845;50.190;19.178;2024-03-23T21:23:09;9.00;;;4.10;;
41101;SDS011;26845;50.190;19.178;2024-03-23T21:26:09;7.00;;;3.10;;
41101;SDS011;26845;50.190;19.178;2024-03-23T21:28:51;7.50;;;3.40;;
41101;SDS011;26845;50.190;19.178;2024-03-23T21:31:31;3.90;;;1.60;;
41101;SDS011;26845;50.190;19.178;2024-03-23T21:34:11;5.40;;;2.50;;
41101;SDS011;26845;50.190;19.178;2024-03-23T21:37:13;8.30;;;3.70;;
41101;SDS011;26845;50.190;19.178;2024-03-23T21:39:50;7.00;;;3.70;;
41101;SDS011;26845;50.190;19.178;2024-03-23T21:42:30;7.10;;;4.00;;
41101;SDS011;26845;50.190;19.178;2024-03-23T21:45:30;7.80;;;3.10;;
41101;SDS011;26845;50.190;19.178;2024-03-23T21:48:09;8.00;;;3.50;;
41101;SDS011;26845;50.190;19.178;2024-03-23T21:51:08;11.60;;;4.20;;
41101;SDS011;26845;50.190;19.178;2024-03-23T21:56:29;13.40;;;6.00;;
41101;SDS011;26845;50.190;19.178;2024-03-23T21:59:08;11.60;;;4.70;;
41101;SDS011;26845;50.190;19.178;2024-03-23T22:02:07;10.70;;;4.40;;
41101;SDS011;26845;50.190;19.178;2024-03-23T22:10:07;8.60;;;4.60;;
41101;SDS011;26845;50.190;19.178;2024-03-23T22:12:47;12.90;;;5.50;;
41101;SDS011;26845;50.190;19.178;2024-03-23T22:15:27;11.80;;;4.80;;
41101;SDS011;26845;50.190;19.178;2024-03-23T22:18:07;15.20;;;6.10;;
41101;SDS011;26845;50.190;19.178;2024-03-23T22:21:06;11.80;;;5.20;;
41101;SDS011;26845;50.190;19.178;2024-03-23T22:26:45;13.50;;;5.30;;
41101;SDS011;26845;50.190;19.178;2024-03-23T22:29:25;9.30;;;4.20;;
41101;SDS011;26845;50.190;19.178;2024-03-23T22:32:05;9.70;;;4.70;;
41101;SDS011;26845;50.190;19.178;2024-03-23T22:34:45;8.10;;;3.50;;
41101;SDS011;26845;50.190;19.178;2024-03-23T22:37:47;10.90;;;4.50;;
41101;SDS011;26845;50.190;19.178;2024-03-23T22:40:24;10.50;;;4.20;;
41101;SDS011;26845;50.190;19.178;2024-03-23T22:43:04;9.40;;;4.40;;
41101;SDS011;26845;50.190;19.178;2024-03-23T22:46:04;12.80;;;5.70;;
41101;SDS011;26845;50.190;19.178;2024-03-23T22:49:05;14.00;;;5.70;;
41101;SDS011;26845;50.190;19.178;2024-03-23T22:52:01;11.40;;;5.50;;
41101;SDS011;26845;50.190;19.178;2024-03-23T22:54:41;10.00;;;4.20;;
41101;SDS011;26845;50.190;19.178;2024-03-23T22:57:40;10.10;;;3.70;;
41101;SDS011;26845;50.190;19.178;2024-03-23T23:03:22;10.20;;;3.80;;
41101;SDS011;26845;50.190;19.178;2024-03-23T23:06:18;6.40;;;3.00;;
41101;SDS011;26845;50.190;19.178;2024-03-23T23:11:57;11.40;;;4.20;;
41101;SDS011;26845;50.190;19.178;2024-03-23T23:17:55;9.20;;;4.20;;
41101;SDS011;26845;50.190;19.178;2024-03-23T23:23:15;8.40;;;4.10;;
41101;SDS011;26845;50.190;19.178;2024-03-23T23:26:17;9.80;;;3.60;;
41101;SDS011;26845;50.190;19.178;2024-03-23T23:28:54;13.50;;;5.00;;
41101;SDS011;26845;50.190;19.178;2024-03-23T23:31:34;6.00;;;3.20;;
41101;SDS011;26845;50.190;19.178;2024-03-23T23:34:15;8.30;;;3.60;;
41101;SDS011;26845;50.190;19.178;2024-03-23T23:36:54;7.70;;;3.90;;
41101;SDS011;26845;50.190;19.178;2024-03-23T23:39:34;7.00;;;3.40;;
41101;SDS011;26845;50.190;19.178;2024-03-23T23:42:14;8.50;;;3.10;;
41101;SDS011;26845;50.190;19.178;2024-03-23T23:44:54;7.00;;;3.40;;
41101;SDS011;26845;50.190;19.178;2024-03-23T23:47:34;7.60;;;3.30;;
41101;SDS011;26845;50.190;19.178;2024-03-23T23:50:33;9.00;;;3.40;;
41101;SDS011;26845;50.190;19.178;2024-03-23T23:53:13;7.10;;;3.40;;
41101;SDS011;26845;50.190;19.178;2024-03-23T23:56:12;7.60;;;3.90;;
